sensor_id;sensor_type;location;lat;lon;timestamp;P1;durP1;ratioP1;P2;durP2;ratioP2
3939;SDS011;1984;48.312;9.244;2023-03-23T00:02:28;11.97;;;6.40;;
3939;SDS011;1984;48.312;9.244;2023-03-23T00:05:00;11.33;;;6.80;;
3939;SDS011;1984;48.312;9.244;2023-03-23T00:07:29;12.37;;;7.07;;
3939;SDS011;1984;48.312;9.244;2023-03-23T00:09:55;10.73;;;6.67;;
3939;SDS011;1984;48.312;9.244;2023-03-23T00:12:22;12.07;;;7.00;;
3939;SDS011;1984;48.312;9.244;2023-03-23T00:14:58;20.27;;;7.07;;
3939;SDS011;1984;48.312;9.244;2023-03-23T00:17:25;11.57;;;4.97;;
3939;SDS011;1984;48.312;9.244;2023-03-23T00:19:51;8.90;;;5.20;;
3939;SDS011;1984;48.312;9.244;2023-03-23T00:22:17;5.27;;;3.93;;
3939;SDS011;1984;48.312;9.244;2023-03-23T00:24:44;7.00;;;4.07;;
3939;SDS011;1984;48.312;9.244;2023-03-23T00:27:10;10.87;;;6.00;;
3939;SDS011;1984;48.312;9.244;2023-03-23T00:29:37;6.50;;;4.33;;
3939;SDS011;1984;48.312;9.244;2023-03-23T00:32:04;7.03;;;4.07;;
3939;SDS011;1984;48.312;9.244;2023-03-23T00:34:29;5.20;;;4.23;;
3939;SDS011;1984;48.312;9.244;2023-03-23T00:36:57;5.87;;;3.60;;
3939;SDS011;1984;48.312;9.244;2023-03-23T00:39:24;7.00;;;3.87;;
3939;SDS011;1984;48.312;9.244;2023-03-23T00:41:54;5.10;;;3.80;;
3939;SDS011;1984;48.312;9.244;2023-03-23T00:44:25;4.00;;;3.27;;
3939;SDS011;1984;48.312;9.244;2023-03-23T00:46:55;3.10;;;2.80;;
3939;SDS011;1984;48.312;9.244;2023-03-23T00:49:22;9.00;;;3.40;;
3939;SDS011;1984;48.312;9.244;2023-03-23T00:51:51;7.83;;;3.13;;
3939;SDS011;1984;48.312;9.244;2023-03-23T00:54:18;6.93;;;3.33;;
3939;SDS011;1984;48.312;9.244;2023-03-23T00:56:44;8.53;;;3.80;;
3939;SDS011;1984;48.312;9.244;2023-03-23T00:59:10;4.10;;;3.00;;
3939;SDS011;1984;48.312;9.244;2023-03-23T01:01:36;5.80;;;3.43;;
3939;SDS011;1984;48.312;9.244;2023-03-23T01:04:02;6.20;;;3.43;;
3939;SDS011;1984;48.312;9.244;2023-03-23T01:06:32;7.70;;;4.50;;
3939;SDS011;1984;48.312;9.244;2023-03-23T01:09:06;7.40;;;3.70;;
3939;SDS011;1984;48.312;9.244;2023-03-23T01:11:32;6.10;;;3.50;;
3939;SDS011;1984;48.312;9.244;2023-03-23T01:13:58;6.23;;;3.60;;
3939;SDS011;1984;48.312;9.244;2023-03-23T01:16:25;5.30;;;3.70;;
3939;SDS011;1984;48.312;9.244;2023-03-23T01:18:51;7.70;;;3.57;;
3939;SDS011;1984;48.312;9.244;2023-03-23T01:21:17;6.27;;;3.60;;
3939;SDS011;1984;48.312;9.244;2023-03-23T01:23:44;6.97;;;3.60;;
3939;SDS011;1984;48.312;9.244;2023-03-23T01:26:11;4.80;;;3.57;;
3939;SDS011;1984;48.312;9.244;2023-03-23T01:28:39;6.20;;;3.53;;
3939;SDS011;1984;48.312;9.244;2023-03-23T01:31:06;5.97;;;3.30;;
3939;SDS011;1984;48.312;9.244;2023-03-23T01:33:33;11.83;;;3.97;;
3939;SDS011;1984;48.312;9.244;2023-03-23T01:36:06;8.60;;;4.40;;
3939;SDS011;1984;48.312;9.244;2023-03-23T01:38:35;4.37;;;3.73;;
3939;SDS011;1984;48.312;9.244;2023-03-23T01:41:01;7.13;;;4.10;;
3939;SDS011;1984;48.312;9.244;2023-03-23T01:43:28;9.63;;;4.23;;
3939;SDS011;1984;48.312;9.244;2023-03-23T01:45:54;5.43;;;3.87;;
3939;SDS011;1984;48.312;9.244;2023-03-23T01:48:22;4.17;;;3.77;;
3939;SDS011;1984;48.312;9.244;2023-03-23T01:50:53;6.50;;;4.20;;
3939;SDS011;1984;48.312;9.244;2023-03-23T01:53:24;4.60;;;3.50;;
3939;SDS011;1984;48.312;9.244;2023-03-23T01:55:55;3.40;;;3.10;;
3939;SDS011;1984;48.312;9.244;2023-03-23T01:58:24;3.63;;;2.90;;
3939;SDS011;1984;48.312;9.244;2023-03-23T02:00:53;6.13;;;3.17;;
3939;SDS011;1984;48.312;9.244;2023-03-23T02:03:20;4.60;;;3.30;;
3939;SDS011;1984;48.312;9.244;2023-03-23T02:05:48;7.20;;;3.63;;
3939;SDS011;1984;48.312;9.244;2023-03-23T02:08:15;6.80;;;3.73;;
3939;SDS011;1984;48.312;9.244;2023-03-23T02:10:43;9.60;;;4.10;;
3939;SDS011;1984;48.312;9.244;2023-03-23T02:13:09;7.50;;;3.60;;
3939;SDS011;1984;48.312;9.244;2023-03-23T02:35:11;18.60;;;4.70;;
3939;SDS011;1984;48.312;9.244;2023-03-23T02:37:46;7.70;;;4.07;;
3939;SDS011;1984;48.312;9.244;2023-03-23T02:40:18;7.60;;;4.30;;
3939;SDS011;1984;48.312;9.244;2023-03-23T02:42:50;7.87;;;3.93;;
3939;SDS011;1984;48.312;9.244;2023-03-23T02:45:19;6.17;;;3.93;;
3939;SDS011;1984;48.312;9.244;2023-03-23T02:47:48;7.20;;;3.50;;
3939;SDS011;1984;48.312;9.244;2023-03-23T02:50:17;3.30;;;2.70;;
3939;SDS011;1984;48.312;9.244;2023-03-23T02:52:45;6.03;;;2.93;;
3939;SDS011;1984;48.312;9.244;2023-03-23T02:55:13;8.07;;;3.10;;
3939;SDS011;1984;48.312;9.244;2023-03-23T02:57:39;2.60;;;2.37;;
3939;SDS011;1984;48.312;9.244;2023-03-23T03:00:06;3.30;;;3.00;;
3939;SDS011;1984;48.312;9.244;2023-03-23T03:02:36;3.60;;;3.13;;
3939;SDS011;1984;48.312;9.244;2023-03-23T03:07:42;5.93;;;3.43;;
3939;SDS011;1984;48.312;9.244;2023-03-23T03:10:32;3.07;;;1.80;;
3939;SDS011;1984;48.312;9.244;2023-03-23T03:13:11;2.70;;;1.70;;
3939;SDS011;1984;48.312;9.244;2023-03-23T03:16:00;2.20;;;1.70;;
3939;SDS011;1984;48.312;9.244;2023-03-23T03:18:50;1.60;;;1.50;;
3939;SDS011;1984;48.312;9.244;2023-03-23T03:21:25;2.83;;;1.27;;
3939;SDS011;1984;48.312;9.244;2023-03-23T03:23:54;3.67;;;1.83;;
3939;SDS011;1984;48.312;9.244;2023-03-23T03:26:27;9.00;;;1.80;;
3939;SDS011;1984;48.312;9.244;2023-03-23T03:28:54;1.50;;;1.50;;
3939;SDS011;1984;48.312;9.244;2023-03-23T03:31:30;1.70;;;1.60;;
3939;SDS011;1984;48.312;9.244;2023-03-23T03:34:00;1.80;;;1.57;;
3939;SDS011;1984;48.312;9.244;2023-03-23T03:36:30;2.50;;;2.30;;
3939;SDS011;1984;48.312;9.244;2023-03-23T03:39:00;1.70;;;1.60;;
3939;SDS011;1984;48.312;9.244;2023-03-23T03:41:32;2.20;;;1.70;;
3939;SDS011;1984;48.312;9.244;2023-03-23T03:43:58;3.13;;;1.60;;
3939;SDS011;1984;48.312;9.244;2023-03-23T03:46:24;4.63;;;1.50;;
3939;SDS011;1984;48.312;9.244;2023-03-23T03:48:52;1.27;;;1.17;;
3939;SDS011;1984;48.312;9.244;2023-03-23T03:51:17;19.07;;;2.30;;
3939;SDS011;1984;48.312;9.244;2023-03-23T03:53:43;2.53;;;2.07;;
3939;SDS011;1984;48.312;9.244;2023-03-23T03:56:08;3.87;;;2.27;;
3939;SDS011;1984;48.312;9.244;2023-03-23T03:58:34;5.30;;;2.67;;
3939;SDS011;1984;48.312;9.244;2023-03-23T04:01:00;7.27;;;2.70;;
3939;SDS011;1984;48.312;9.244;2023-03-23T04:03:27;2.30;;;2.00;;
3939;SDS011;1984;48.312;9.244;2023-03-23T04:05:53;5.27;;;2.90;;
3939;SDS011;1984;48.312;9.244;2023-03-23T04:08:20;9.00;;;3.13;;
3939;SDS011;1984;48.312;9.244;2023-03-23T04:10:49;8.87;;;3.70;;
3939;SDS011;1984;48.312;9.244;2023-03-23T04:13:16;2.80;;;2.13;;
3939;SDS011;1984;48.312;9.244;2023-03-23T04:15:41;4.63;;;2.57;;
3939;SDS011;1984;48.312;9.244;2023-03-23T04:18:09;2.60;;;1.93;;
3939;SDS011;1984;48.312;9.244;2023-03-23T04:20:34;9.70;;;2.73;;
3939;SDS011;1984;48.312;9.244;2023-03-23T04:23:00;5.43;;;3.00;;
3939;SDS011;1984;48.312;9.244;2023-03-23T04:25:26;3.47;;;2.70;;
3939;SDS011;1984;48.312;9.244;2023-03-23T04:27:52;6.70;;;3.03;;
3939;SDS011;1984;48.312;9.244;2023-03-23T04:30:22;10.47;;;4.30;;
3939;SDS011;1984;48.312;9.244;2023-03-23T04:32:50;7.83;;;2.60;;
3939;SDS011;1984;48.312;9.244;2023-03-23T04:35:17;5.50;;;3.03;;
3939;SDS011;1984;48.312;9.244;2023-03-23T04:37:44;3.60;;;2.47;;
3939;SDS011;1984;48.312;9.244;2023-03-23T04:40:12;5.17;;;2.77;;
3939;SDS011;1984;48.312;9.244;2023-03-23T04:42:39;5.67;;;3.70;;
3939;SDS011;1984;48.312;9.244;2023-03-23T04:45:10;7.03;;;3.60;;
3939;SDS011;1984;48.312;9.244;2023-03-23T04:47:39;7.30;;;2.77;;
3939;SDS011;1984;48.312;9.244;2023-03-23T04:50:09;6.73;;;3.20;;
3939;SDS011;1984;48.312;9.244;2023-03-23T04:52:39;7.17;;;2.77;;
3939;SDS011;1984;48.312;9.244;2023-03-23T04:55:10;4.17;;;2.37;;
3939;SDS011;1984;48.312;9.244;2023-03-23T04:57:37;2.60;;;2.10;;
3939;SDS011;1984;48.312;9.244;2023-03-23T05:00:03;2.70;;;1.77;;
3939;SDS011;1984;48.312;9.244;2023-03-23T05:02:34;1.80;;;1.70;;
3939;SDS011;1984;48.312;9.244;2023-03-23T05:05:04;2.03;;;1.83;;
3939;SDS011;1984;48.312;9.244;2023-03-23T05:07:30;3.60;;;2.17;;
3939;SDS011;1984;48.312;9.244;2023-03-23T05:09:56;5.87;;;2.17;;
3939;SDS011;1984;48.312;9.244;2023-03-23T05:12:22;4.77;;;2.10;;
3939;SDS011;1984;48.312;9.244;2023-03-23T05:14:47;4.00;;;2.47;;
3939;SDS011;1984;48.312;9.244;2023-03-23T05:17:13;7.40;;;2.47;;
3939;SDS011;1984;48.312;9.244;2023-03-23T05:19:41;4.50;;;2.23;;
3939;SDS011;1984;48.312;9.244;2023-03-23T05:22:09;3.43;;;2.13;;
3939;SDS011;1984;48.312;9.244;2023-03-23T05:24:37;7.13;;;2.23;;
3939;SDS011;1984;48.312;9.244;2023-03-23T05:27:03;4.90;;;2.40;;
3939;SDS011;1984;48.312;9.244;2023-03-23T05:29:29;3.43;;;2.27;;
3939;SDS011;1984;48.312;9.244;2023-03-23T05:31:55;2.40;;;1.93;;
3939;SDS011;1984;48.312;9.244;2023-03-23T05:34:25;5.80;;;2.60;;
3939;SDS011;1984;48.312;9.244;2023-03-23T05:36:51;4.10;;;2.20;;
3939;SDS011;1984;48.312;9.244;2023-03-23T05:39:18;4.80;;;3.03;;
3939;SDS011;1984;48.312;9.244;2023-03-23T05:41:44;3.13;;;2.70;;
3939;SDS011;1984;48.312;9.244;2023-03-23T05:44:10;8.30;;;3.60;;
3939;SDS011;1984;48.312;9.244;2023-03-23T05:46:38;8.17;;;3.03;;
3939;SDS011;1984;48.312;9.244;2023-03-23T05:49:04;6.40;;;3.50;;
3939;SDS011;1984;48.312;9.244;2023-03-23T05:51:29;5.20;;;3.93;;
3939;SDS011;1984;48.312;9.244;2023-03-23T05:53:55;8.30;;;3.10;;
3939;SDS011;1984;48.312;9.244;2023-03-23T05:56:21;3.40;;;2.93;;
3939;SDS011;1984;48.312;9.244;2023-03-23T05:58:46;4.60;;;2.70;;
3939;SDS011;1984;48.312;9.244;2023-03-23T06:01:12;3.97;;;2.87;;
3939;SDS011;1984;48.312;9.244;2023-03-23T06:03:38;8.77;;;3.43;;
3939;SDS011;1984;48.312;9.244;2023-03-23T06:06:05;4.60;;;2.43;;
3939;SDS011;1984;48.312;9.244;2023-03-23T06:08:30;5.37;;;3.40;;
3939;SDS011;1984;48.312;9.244;2023-03-23T06:10:56;6.70;;;3.00;;
3939;SDS011;1984;48.312;9.244;2023-03-23T06:13:22;3.10;;;2.50;;
3939;SDS011;1984;48.312;9.244;2023-03-23T06:15:48;3.30;;;3.00;;
3939;SDS011;1984;48.312;9.244;2023-03-23T06:18:14;5.13;;;3.23;;
3939;SDS011;1984;48.312;9.244;2023-03-23T06:20:39;3.40;;;3.00;;
3939;SDS011;1984;48.312;9.244;2023-03-23T06:23:05;4.13;;;2.70;;
3939;SDS011;1984;48.312;9.244;2023-03-23T06:25:33;7.60;;;2.77;;
3939;SDS011;1984;48.312;9.244;2023-03-23T06:27:59;5.50;;;2.60;;
3939;SDS011;1984;48.312;9.244;2023-03-23T06:30:25;4.27;;;2.77;;
3939;SDS011;1984;48.312;9.244;2023-03-23T06:32:51;2.70;;;2.50;;
3939;SDS011;1984;48.312;9.244;2023-03-23T06:35:17;5.03;;;2.83;;
3939;SDS011;1984;48.312;9.244;2023-03-23T06:37:43;5.30;;;2.17;;
3939;SDS011;1984;48.312;9.244;2023-03-23T06:40:08;4.73;;;2.90;;
3939;SDS011;1984;48.312;9.244;2023-03-23T06:42:35;6.70;;;2.67;;
3939;SDS011;1984;48.312;9.244;2023-03-23T06:45:02;4.97;;;2.83;;
3939;SDS011;1984;48.312;9.244;2023-03-23T06:47:29;4.43;;;1.90;;
3939;SDS011;1984;48.312;9.244;2023-03-23T06:49:55;8.93;;;2.80;;
3939;SDS011;1984;48.312;9.244;2023-03-23T06:52:21;4.57;;;2.40;;
3939;SDS011;1984;48.312;9.244;2023-03-23T06:54:48;3.27;;;2.20;;
3939;SDS011;1984;48.312;9.244;2023-03-23T06:57:14;2.27;;;2.10;;
3939;SDS011;1984;48.312;9.244;2023-03-23T06:59:40;5.20;;;2.53;;
3939;SDS011;1984;48.312;9.244;2023-03-23T07:02:08;7.20;;;2.60;;
3939;SDS011;1984;48.312;9.244;2023-03-23T07:04:38;4.17;;;2.77;;
3939;SDS011;1984;48.312;9.244;2023-03-23T07:07:05;3.37;;;2.33;;
3939;SDS011;1984;48.312;9.244;2023-03-23T07:09:33;2.57;;;2.30;;
3939;SDS011;1984;48.312;9.244;2023-03-23T07:11:58;3.40;;;2.60;;
3939;SDS011;1984;48.312;9.244;2023-03-23T07:14:24;5.10;;;2.60;;
3939;SDS011;1984;48.312;9.244;2023-03-23T07:16:49;2.30;;;2.10;;
3939;SDS011;1984;48.312;9.244;2023-03-23T07:19:15;8.73;;;2.87;;
3939;SDS011;1984;48.312;9.244;2023-03-23T07:21:41;3.20;;;2.50;;
3939;SDS011;1984;48.312;9.244;2023-03-23T07:24:09;2.97;;;2.50;;
3939;SDS011;1984;48.312;9.244;2023-03-23T07:26:39;3.07;;;2.07;;
3939;SDS011;1984;48.312;9.244;2023-03-23T07:29:06;2.90;;;2.23;;
3939;SDS011;1984;48.312;9.244;2023-03-23T07:31:32;3.87;;;2.20;;
3939;SDS011;1984;48.312;9.244;2023-03-23T07:33:57;1.97;;;1.63;;
3939;SDS011;1984;48.312;9.244;2023-03-23T07:36:23;3.77;;;2.67;;
3939;SDS011;1984;48.312;9.244;2023-03-23T07:38:48;4.40;;;2.67;;
3939;SDS011;1984;48.312;9.244;2023-03-23T07:41:14;2.40;;;2.20;;
3939;SDS011;1984;48.312;9.244;2023-03-23T07:43:40;3.57;;;2.07;;
3939;SDS011;1984;48.312;9.244;2023-03-23T07:46:06;2.03;;;1.93;;
3939;SDS011;1984;48.312;9.244;2023-03-23T07:48:32;4.07;;;1.97;;
3939;SDS011;1984;48.312;9.244;2023-03-23T07:50:58;2.07;;;1.87;;
3939;SDS011;1984;48.312;9.244;2023-03-23T07:53:24;4.93;;;2.00;;
3939;SDS011;1984;48.312;9.244;2023-03-23T07:55:50;2.40;;;1.93;;
3939;SDS011;1984;48.312;9.244;2023-03-23T07:58:17;2.87;;;2.13;;
3939;SDS011;1984;48.312;9.244;2023-03-23T08:00:45;4.33;;;2.60;;
3939;SDS011;1984;48.312;9.244;2023-03-23T08:03:11;3.13;;;2.30;;
3939;SDS011;1984;48.312;9.244;2023-03-23T08:05:37;2.00;;;1.80;;
3939;SDS011;1984;48.312;9.244;2023-03-23T08:08:03;3.43;;;1.90;;
3939;SDS011;1984;48.312;9.244;2023-03-23T08:10:29;8.70;;;2.40;;
3939;SDS011;1984;48.312;9.244;2023-03-23T08:12:55;3.13;;;2.20;;
3939;SDS011;1984;48.312;9.244;2023-03-23T08:15:21;3.10;;;2.10;;
3939;SDS011;1984;48.312;9.244;2023-03-23T08:17:48;5.40;;;2.40;;
3939;SDS011;1984;48.312;9.244;2023-03-23T08:20:15;2.37;;;2.10;;
3939;SDS011;1984;48.312;9.244;2023-03-23T08:22:42;2.77;;;1.90;;
3939;SDS011;1984;48.312;9.244;2023-03-23T08:25:10;3.10;;;1.80;;
3939;SDS011;1984;48.312;9.244;2023-03-23T08:27:37;2.60;;;2.07;;
3939;SDS011;1984;48.312;9.244;2023-03-23T08:30:07;4.27;;;2.10;;
3939;SDS011;1984;48.312;9.244;2023-03-23T08:32:33;1.83;;;1.70;;
3939;SDS011;1984;48.312;9.244;2023-03-23T08:34:59;2.60;;;2.13;;
3939;SDS011;1984;48.312;9.244;2023-03-23T08:37:25;2.30;;;1.97;;
3939;SDS011;1984;48.312;9.244;2023-03-23T08:39:53;4.43;;;2.30;;
3939;SDS011;1984;48.312;9.244;2023-03-23T08:42:19;6.60;;;3.20;;
3939;SDS011;1984;48.312;9.244;2023-03-23T08:44:45;3.47;;;2.07;;
3939;SDS011;1984;48.312;9.244;2023-03-23T08:47:10;15.83;;;2.13;;
3939;SDS011;1984;48.312;9.244;2023-03-23T08:49:36;10.87;;;1.50;;
3939;SDS011;1984;48.312;9.244;2023-03-23T08:52:03;3.23;;;1.53;;
3939;SDS011;1984;48.312;9.244;2023-03-23T08:54:28;3.67;;;1.30;;
3939;SDS011;1984;48.312;9.244;2023-03-23T08:57:00;2.10;;;1.27;;
3939;SDS011;1984;48.312;9.244;2023-03-23T08:59:26;1.43;;;1.13;;
3939;SDS011;1984;48.312;9.244;2023-03-23T09:01:52;0.90;;;0.90;;
3939;SDS011;1984;48.312;9.244;2023-03-23T09:04:18;8.30;;;1.27;;
3939;SDS011;1984;48.312;9.244;2023-03-23T09:06:44;1.00;;;1.00;;
3939;SDS011;1984;48.312;9.244;2023-03-23T09:09:10;2.30;;;1.37;;
3939;SDS011;1984;48.312;9.244;2023-03-23T09:11:36;2.83;;;1.47;;
3939;SDS011;1984;48.312;9.244;2023-03-23T09:14:03;3.53;;;1.27;;
3939;SDS011;1984;48.312;9.244;2023-03-23T09:16:30;3.50;;;1.10;;
3939;SDS011;1984;48.312;9.244;2023-03-23T09:18:56;1.27;;;1.00;;
3939;SDS011;1984;48.312;9.244;2023-03-23T09:21:25;3.93;;;1.37;;
3939;SDS011;1984;48.312;9.244;2023-03-23T09:23:52;3.40;;;1.17;;
3939;SDS011;1984;48.312;9.244;2023-03-23T09:26:21;3.00;;;1.00;;
3939;SDS011;1984;48.312;9.244;2023-03-23T09:28:47;1.50;;;1.40;;
3939;SDS011;1984;48.312;9.244;2023-03-23T09:31:12;3.90;;;1.37;;
3939;SDS011;1984;48.312;9.244;2023-03-23T09:33:38;4.57;;;1.00;;
3939;SDS011;1984;48.312;9.244;2023-03-23T09:36:04;1.33;;;1.23;;
3939;SDS011;1984;48.312;9.244;2023-03-23T09:38:33;1.20;;;1.10;;
3939;SDS011;1984;48.312;9.244;2023-03-23T09:43:40;0.97;;;0.97;;
3939;SDS011;1984;48.312;9.244;2023-03-23T09:49:25;1.60;;;1.23;;
3939;SDS011;1984;48.312;9.244;2023-03-23T09:51:56;1.93;;;1.33;;
3939;SDS011;1984;48.312;9.244;2023-03-23T09:57:01;1.43;;;1.33;;
3939;SDS011;1984;48.312;9.244;2023-03-23T09:59:46;1.23;;;1.07;;
3939;SDS011;1984;48.312;9.244;2023-03-23T10:02:36;1.13;;;1.03;;
3939;SDS011;1984;48.312;9.244;2023-03-23T10:07:54;1.73;;;1.17;;
3939;SDS011;1984;48.312;9.244;2023-03-23T10:10:19;1.43;;;1.30;;
3939;SDS011;1984;48.312;9.244;2023-03-23T10:12:49;12.67;;;1.33;;
3939;SDS011;1984;48.312;9.244;2023-03-23T10:15:23;1.67;;;1.20;;
3939;SDS011;1984;48.312;9.244;2023-03-23T10:18:41;1.33;;;1.20;;
3939;SDS011;1984;48.312;9.244;2023-03-23T10:20:53;1.87;;;1.20;;
3939;SDS011;1984;48.312;9.244;2023-03-23T10:23:33;1.43;;;1.30;;
3939;SDS011;1984;48.312;9.244;2023-03-23T10:28:44;1.30;;;1.20;;
3939;SDS011;1984;48.312;9.244;2023-03-23T10:31:13;3.87;;;1.13;;
3939;SDS011;1984;48.312;9.244;2023-03-23T10:33:44;1.53;;;1.30;;
3939;SDS011;1984;48.312;9.244;2023-03-23T10:36:14;1.67;;;1.57;;
3939;SDS011;1984;48.312;9.244;2023-03-23T10:38:57;1.40;;;1.30;;
3939;SDS011;1984;48.312;9.244;2023-03-23T10:41:26;1.37;;;1.03;;
3939;SDS011;1984;48.312;9.244;2023-03-23T10:43:52;3.97;;;1.40;;
3939;SDS011;1984;48.312;9.244;2023-03-23T10:46:25;1.27;;;1.17;;
3939;SDS011;1984;48.312;9.244;2023-03-23T10:49:02;11.50;;;1.00;;
3939;SDS011;1984;48.312;9.244;2023-03-23T10:51:34;1.30;;;1.20;;
3939;SDS011;1984;48.312;9.244;2023-03-23T10:54:02;1.93;;;1.40;;
3939;SDS011;1984;48.312;9.244;2023-03-23T10:56:39;1.37;;;1.10;;
3939;SDS011;1984;48.312;9.244;2023-03-23T10:59:13;2.40;;;1.50;;
3939;SDS011;1984;48.312;9.244;2023-03-23T11:01:45;3.53;;;2.30;;
3939;SDS011;1984;48.312;9.244;2023-03-23T11:04:15;1.80;;;1.40;;
3939;SDS011;1984;48.312;9.244;2023-03-23T11:06:46;1.37;;;1.27;;
3939;SDS011;1984;48.312;9.244;2023-03-23T11:09:18;2.20;;;1.70;;
3939;SDS011;1984;48.312;9.244;2023-03-23T11:11:50;2.30;;;1.50;;
3939;SDS011;1984;48.312;9.244;2023-03-23T11:16:50;2.13;;;1.67;;
3939;SDS011;1984;48.312;9.244;2023-03-23T11:19:35;1.33;;;1.23;;
3939;SDS011;1984;48.312;9.244;2023-03-23T11:22:13;1.60;;;1.50;;
3939;SDS011;1984;48.312;9.244;2023-03-23T11:24:45;3.57;;;1.90;;
3939;SDS011;1984;48.312;9.244;2023-03-23T11:27:13;2.60;;;1.67;;
3939;SDS011;1984;48.312;9.244;2023-03-23T11:29:50;1.60;;;1.50;;
3939;SDS011;1984;48.312;9.244;2023-03-23T11:32:35;1.93;;;1.70;;
3939;SDS011;1984;48.312;9.244;2023-03-23T11:35:06;2.10;;;2.00;;
3939;SDS011;1984;48.312;9.244;2023-03-23T11:37:43;2.73;;;1.90;;
3939;SDS011;1984;48.312;9.244;2023-03-23T11:40:18;3.50;;;2.40;;
3939;SDS011;1984;48.312;9.244;2023-03-23T11:45:24;1.60;;;1.50;;
3939;SDS011;1984;48.312;9.244;2023-03-23T11:50:44;1.60;;;1.50;;
3939;SDS011;1984;48.312;9.244;2023-03-23T11:56:17;1.57;;;1.43;;
3939;SDS011;1984;48.312;9.244;2023-03-23T11:58:50;2.20;;;1.70;;
3939;SDS011;1984;48.312;9.244;2023-03-23T12:04:20;2.20;;;1.77;;
3939;SDS011;1984;48.312;9.244;2023-03-23T12:07:06;1.43;;;1.30;;
3939;SDS011;1984;48.312;9.244;2023-03-23T12:12:57;3.60;;;2.43;;
3939;SDS011;1984;48.312;9.244;2023-03-23T12:21:41;1.50;;;1.40;;
3939;SDS011;1984;48.312;9.244;2023-03-23T12:24:28;1.83;;;1.73;;
3939;SDS011;1984;48.312;9.244;2023-03-23T12:30:20;1.67;;;1.57;;
3939;SDS011;1984;48.312;9.244;2023-03-23T12:33:02;4.60;;;1.83;;
3939;SDS011;1984;48.312;9.244;2023-03-23T12:36:03;1.60;;;1.50;;
3939;SDS011;1984;48.312;9.244;2023-03-23T12:38:54;1.30;;;1.20;;
3939;SDS011;1984;48.312;9.244;2023-03-23T12:42:02;7.40;;;1.40;;
3939;SDS011;1984;48.312;9.244;2023-03-23T12:44:41;1.70;;;1.60;;
3939;SDS011;1984;48.312;9.244;2023-03-23T12:47:21;4.00;;;1.63;;
3939;SDS011;1984;48.312;9.244;2023-03-23T12:50:09;2.10;;;1.50;;
3939;SDS011;1984;48.312;9.244;2023-03-23T12:53:02;1.57;;;1.30;;
3939;SDS011;1984;48.312;9.244;2023-03-23T12:55:37;7.50;;;1.20;;
3939;SDS011;1984;48.312;9.244;2023-03-23T12:58:09;3.73;;;1.63;;
3939;SDS011;1984;48.312;9.244;2023-03-23T13:06:07;6.00;;;1.90;;
3939;SDS011;1984;48.312;9.244;2023-03-23T13:08:52;3.07;;;1.20;;
3939;SDS011;1984;48.312;9.244;2023-03-23T13:14:16;4.73;;;1.50;;
3939;SDS011;1984;48.312;9.244;2023-03-23T13:17:10;2.37;;;1.60;;
3939;SDS011;1984;48.312;9.244;2023-03-23T13:22:45;1.47;;;1.37;;
3939;SDS011;1984;48.312;9.244;2023-03-23T13:25:19;1.60;;;1.50;;
3939;SDS011;1984;48.312;9.244;2023-03-23T13:28:14;2.67;;;2.40;;
3939;SDS011;1984;48.312;9.244;2023-03-23T13:30:52;2.07;;;1.50;;
3939;SDS011;1984;48.312;9.244;2023-03-23T13:33:19;1.60;;;1.50;;
3939;SDS011;1984;48.312;9.244;2023-03-23T13:35:46;1.53;;;1.40;;
3939;SDS011;1984;48.312;9.244;2023-03-23T13:38:19;1.50;;;1.40;;
3939;SDS011;1984;48.312;9.244;2023-03-23T13:40:49;1.63;;;1.50;;
3939;SDS011;1984;48.312;9.244;2023-03-23T13:43:32;3.07;;;1.80;;
3939;SDS011;1984;48.312;9.244;2023-03-23T13:46:06;1.60;;;1.23;;
3939;SDS011;1984;48.312;9.244;2023-03-23T13:48:39;1.17;;;1.07;;
3939;SDS011;1984;48.312;9.244;2023-03-23T13:51:23;1.33;;;1.23;;
3939;SDS011;1984;48.312;9.244;2023-03-23T13:56:54;1.40;;;1.30;;
3939;SDS011;1984;48.312;9.244;2023-03-23T13:59:46;1.70;;;1.60;;
3939;SDS011;1984;48.312;9.244;2023-03-23T14:05:38;1.30;;;1.23;;
3939;SDS011;1984;48.312;9.244;2023-03-23T14:10:41;4.50;;;2.00;;
3939;SDS011;1984;48.312;9.244;2023-03-23T14:13:19;1.57;;;1.10;;
3939;SDS011;1984;48.312;9.244;2023-03-23T14:15:55;3.53;;;1.60;;
3939;SDS011;1984;48.312;9.244;2023-03-23T14:19:13;3.77;;;1.57;;
3939;SDS011;1984;48.312;9.244;2023-03-23T14:21:38;1.57;;;1.47;;
3939;SDS011;1984;48.312;9.244;2023-03-23T14:24:09;3.03;;;1.40;;
3939;SDS011;1984;48.312;9.244;2023-03-23T14:26:36;1.80;;;1.70;;
3939;SDS011;1984;48.312;9.244;2023-03-23T14:29:03;3.37;;;1.77;;
3939;SDS011;1984;48.312;9.244;2023-03-23T14:31:30;2.33;;;1.43;;
3939;SDS011;1984;48.312;9.244;2023-03-23T14:34:00;1.90;;;1.60;;
3939;SDS011;1984;48.312;9.244;2023-03-23T14:36:29;1.50;;;1.40;;
3939;SDS011;1984;48.312;9.244;2023-03-23T14:38:58;2.37;;;1.83;;
3939;SDS011;1984;48.312;9.244;2023-03-23T14:41:33;2.40;;;1.80;;
3939;SDS011;1984;48.312;9.244;2023-03-23T14:44:01;3.63;;;1.87;;
3939;SDS011;1984;48.312;9.244;2023-03-23T14:46:29;2.63;;;1.90;;
3939;SDS011;1984;48.312;9.244;2023-03-23T14:48:56;1.70;;;1.60;;
3939;SDS011;1984;48.312;9.244;2023-03-23T14:51:24;2.10;;;1.80;;
3939;SDS011;1984;48.312;9.244;2023-03-23T14:53:49;2.43;;;1.83;;
3939;SDS011;1984;48.312;9.244;2023-03-23T14:56:18;2.30;;;2.10;;
3939;SDS011;1984;48.312;9.244;2023-03-23T14:58:48;2.77;;;2.07;;
3939;SDS011;1984;48.312;9.244;2023-03-23T15:01:23;5.50;;;2.57;;
3939;SDS011;1984;48.312;9.244;2023-03-23T15:04:02;2.80;;;1.90;;
3939;SDS011;1984;48.312;9.244;2023-03-23T15:06:30;4.13;;;1.93;;
3939;SDS011;1984;48.312;9.244;2023-03-23T15:08:58;2.60;;;1.50;;
3939;SDS011;1984;48.312;9.244;2023-03-23T15:11:31;3.27;;;1.83;;
3939;SDS011;1984;48.312;9.244;2023-03-23T15:14:17;1.90;;;1.80;;
3939;SDS011;1984;48.312;9.244;2023-03-23T15:16:49;2.10;;;1.77;;
3939;SDS011;1984;48.312;9.244;2023-03-23T15:19:40;3.70;;;1.73;;
3939;SDS011;1984;48.312;9.244;2023-03-23T15:22:06;3.43;;;2.30;;
3939;SDS011;1984;48.312;9.244;2023-03-23T15:24:41;2.50;;;2.30;;
3939;SDS011;1984;48.312;9.244;2023-03-23T15:29:50;5.87;;;3.60;;
3939;SDS011;1984;48.312;9.244;2023-03-23T15:32:25;2.40;;;1.70;;
3939;SDS011;1984;48.312;9.244;2023-03-23T15:34:53;2.30;;;1.97;;
3939;SDS011;1984;48.312;9.244;2023-03-23T15:37:27;4.07;;;3.10;;
3939;SDS011;1984;48.312;9.244;2023-03-23T15:39:55;2.93;;;2.60;;
3939;SDS011;1984;48.312;9.244;2023-03-23T15:45:14;4.37;;;1.77;;
3939;SDS011;1984;48.312;9.244;2023-03-23T15:47:48;3.43;;;2.03;;
3939;SDS011;1984;48.312;9.244;2023-03-23T15:50:32;2.10;;;1.90;;
3939;SDS011;1984;48.312;9.244;2023-03-23T15:52:59;3.20;;;2.13;;
3939;SDS011;1984;48.312;9.244;2023-03-23T15:55:27;3.13;;;2.20;;
3939;SDS011;1984;48.312;9.244;2023-03-23T15:57:55;2.83;;;2.40;;
3939;SDS011;1984;48.312;9.244;2023-03-23T16:00:23;2.10;;;1.90;;
3939;SDS011;1984;48.312;9.244;2023-03-23T16:02:52;3.60;;;2.17;;
3939;SDS011;1984;48.312;9.244;2023-03-23T16:05:24;2.40;;;2.20;;
3939;SDS011;1984;48.312;9.244;2023-03-23T16:07:51;4.00;;;2.00;;
3939;SDS011;1984;48.312;9.244;2023-03-23T16:10:17;2.80;;;2.27;;
3939;SDS011;1984;48.312;9.244;2023-03-23T16:12:44;2.77;;;2.13;;
3939;SDS011;1984;48.312;9.244;2023-03-23T16:15:11;2.10;;;1.90;;
3939;SDS011;1984;48.312;9.244;2023-03-23T16:17:37;1.83;;;1.63;;
3939;SDS011;1984;48.312;9.244;2023-03-23T16:20:13;4.10;;;2.00;;
3939;SDS011;1984;48.312;9.244;2023-03-23T16:22:43;2.20;;;2.00;;
3939;SDS011;1984;48.312;9.244;2023-03-23T16:25:09;2.93;;;2.27;;
3939;SDS011;1984;48.312;9.244;2023-03-23T16:27:36;2.83;;;2.27;;
3939;SDS011;1984;48.312;9.244;2023-03-23T16:30:12;6.93;;;2.43;;
3939;SDS011;1984;48.312;9.244;2023-03-23T16:32:40;6.47;;;1.93;;
3939;SDS011;1984;48.312;9.244;2023-03-23T16:35:06;2.47;;;1.50;;
3939;SDS011;1984;48.312;9.244;2023-03-23T16:37:31;2.47;;;1.90;;
3939;SDS011;1984;48.312;9.244;2023-03-23T16:39:58;1.87;;;1.73;;
3939;SDS011;1984;48.312;9.244;2023-03-23T16:42:24;1.70;;;1.60;;
3939;SDS011;1984;48.312;9.244;2023-03-23T16:44:50;3.70;;;2.50;;
3939;SDS011;1984;48.312;9.244;2023-03-23T16:47:16;2.40;;;1.90;;
3939;SDS011;1984;48.312;9.244;2023-03-23T16:49:43;3.60;;;2.00;;
3939;SDS011;1984;48.312;9.244;2023-03-23T16:52:08;4.73;;;2.50;;
3939;SDS011;1984;48.312;9.244;2023-03-23T16:54:34;3.30;;;1.80;;
3939;SDS011;1984;48.312;9.244;2023-03-23T16:57:00;3.73;;;2.60;;
3939;SDS011;1984;48.312;9.244;2023-03-23T16:59:26;2.73;;;1.93;;
3939;SDS011;1984;48.312;9.244;2023-03-23T17:01:52;2.33;;;2.10;;